createdAt,value
2023-05-10T00:02:34.301Z,95152.66
2023-05-10T00:07:35.952Z,95136.56
2023-05-10T00:12:37.593Z,95130.38
2023-05-10T00:17:39.197Z,95129.31
2023-05-10T00:22:40.800Z,95126.97
2023-05-10T00:27:42.373Z,95122.38
2023-05-10T00:32:44.621Z,95113.75
2023-05-10T00:37:46.221Z,95119.44
2023-05-10T00:42:47.783Z,95115.59
2023-05-10T00:47:50.143Z,95120.81
2023-05-10T00:52:53.228Z,95120.50
2023-05-10T00:57:55.275Z,95122.16
2023-05-10T01:02:57.130Z,95119.56
2023-05-10T01:07:58.715Z,95120.00
2023-05-10T01:13:00.451Z,95117.72
2023-05-10T01:18:03.319Z,95116.16
2023-05-10T01:23:17.030Z,95120.59
2023-05-10T01:28:49.552Z,95125.19
2023-05-10T01:33:59.952Z,95130.88
2023-05-10T01:39:22.880Z,95125.94
2023-05-10T01:44:38.457Z,95133.56
2023-05-10T01:49:47.292Z,95133.69
2023-05-10T01:54:55.046Z,95129.84
2023-05-10T01:59:58.052Z,95130.75
2023-05-10T02:05:00.400Z,95132.44
2023-05-10T02:10:05.263Z,95132.13
2023-05-10T02:15:08.693Z,95126.75
2023-05-10T02:20:12.394Z,95127.31
2023-05-10T02:25:14.930Z,95120.72
2023-05-10T02:30:18.958Z,95126.69
2023-05-10T02:35:21.775Z,95116.53
2023-05-10T02:40:26.167Z,95118.94
2023-05-10T02:45:32.306Z,95124.63
2023-05-10T02:50:34.978Z,95115.25
2023-05-10T02:55:39.885Z,95116.16
2023-05-10T03:00:41.538Z,95116.25
2023-05-10T03:05:43.057Z,95120.69
2023-05-10T03:11:05.474Z,95128.34
2023-05-10T03:16:16.566Z,95121.75
2023-05-10T03:21:21.855Z,95123.09
2023-05-10T03:26:27.737Z,95128.44
2023-05-10T03:31:37.151Z,95128.09
2023-05-10T03:36:38.812Z,95130.66
2023-05-10T03:41:40.469Z,95135.97
2023-05-10T03:46:42.204Z,95129.50
2023-05-10T03:51:44.106Z,95130.41
2023-05-10T03:56:46.015Z,95137.25
2023-05-10T04:01:47.779Z,95139.25
2023-05-10T04:06:49.735Z,95140.13
2023-05-10T04:11:51.252Z,95141.78
2023-05-10T04:16:52.815Z,95136.72
2023-05-10T04:21:54.714Z,95149.75
2023-05-10T04:26:57.774Z,95140.25
2023-05-10T04:31:59.670Z,95147.00
2023-05-10T04:37:01.149Z,95147.00
2023-05-10T04:42:04.266Z,95155.56
2023-05-10T04:47:05.811Z,95157.25
2023-05-10T04:52:07.335Z,95163.22
2023-05-10T04:57:09.162Z,95168.41
2023-05-10T05:02:10.855Z,95170.81
2023-05-10T05:07:12.499Z,95177.91
2023-05-10T05:12:15.312Z,95184.63
2023-05-10T05:17:17.112Z,95183.09
2023-05-10T05:22:20.370Z,95189.38
2023-05-10T05:27:24.996Z,95194.88
2023-05-10T05:32:26.805Z,95202.81
2023-05-10T05:37:28.402Z,95200.53
2023-05-10T05:42:32.755Z,95209.56
2023-05-10T05:47:35.334Z,95208.69
2023-05-10T05:52:37.743Z,95219.94
2023-05-10T05:57:40.158Z,95221.16
2023-05-10T06:02:41.784Z,95222.91
2023-05-10T06:07:43.641Z,95232.84
2023-05-10T06:12:46.245Z,95232.19
2023-05-10T06:17:50.786Z,95241.00
2023-05-10T06:22:52.342Z,95242.53
2023-05-10T06:27:58.135Z,95248.59
2023-05-10T06:33:00.270Z,95260.94
2023-05-10T06:38:01.975Z,95264.16
2023-05-10T06:43:04.086Z,95272.44
2023-05-10T06:48:05.941Z,95280.44
2023-05-10T06:53:07.678Z,95277.59
2023-05-10T06:58:09.256Z,95286.94
2023-05-10T07:03:11.679Z,95285.50
2023-05-10T07:08:14.404Z,95288.25
2023-05-10T07:13:15.968Z,95288.81
2023-05-10T07:18:17.764Z,95294.53
2023-05-10T07:23:19.341Z,95296.75
2023-05-10T07:28:21.225Z,95311.31
2023-05-10T07:33:22.902Z,95315.16
2023-05-10T07:38:25.108Z,95315.41
2023-05-10T07:43:26.637Z,95326.28
2023-05-10T07:48:28.207Z,95320.19
2023-05-10T07:53:29.747Z,95327.50
2023-05-10T07:58:31.838Z,95321.34
2023-05-10T08:03:34.061Z,95331.38
2023-05-10T08:08:36.174Z,95338.66
2023-05-10T08:13:37.763Z,95341.75
2023-05-10T08:18:40.534Z,95340.09
2023-05-10T08:23:42.304Z,95341.00
2023-05-10T08:28:43.832Z,95345.06
2023-05-10T08:33:45.574Z,95342.31
2023-05-10T08:38:50.254Z,95352.72
2023-05-10T08:43:54.727Z,95367.38
2023-05-10T08:49:00.733Z,95366.84
2023-05-10T08:54:03.638Z,95369.63
2023-05-10T08:59:05.364Z,95370.13
2023-05-10T09:04:07.260Z,95367.06
2023-05-10T09:09:09.862Z,95373.16
2023-05-10T09:14:13.418Z,95376.47
2023-05-10T09:19:15.061Z,95374.28
2023-05-10T09:24:16.583Z,95386.94
2023-05-10T09:29:18.384Z,95385.91
2023-05-10T09:34:22.758Z,95392.19
2023-05-10T09:39:34.625Z,95384.50
2023-05-10T09:44:36.777Z,95377.47
2023-05-10T09:49:38.872Z,95388.16
2023-05-10T09:54:53.718Z,95385.09
2023-05-10T09:59:55.452Z,95377.03
2023-05-10T10:04:57.797Z,95385.63
2023-05-10T10:09:59.878Z,95361.75
2023-05-10T10:15:02.217Z,95368.00
2023-05-10T10:20:04.700Z,95369.88
2023-05-10T10:25:07.126Z,95363.66
2023-05-10T10:30:31.205Z,95366.59
2023-05-10T10:35:35.732Z,95360.97
2023-05-10T10:40:37.409Z,95356.34
2023-05-10T10:45:41.937Z,95363.47
2023-05-10T10:50:47.758Z,95363.63
2023-05-10T10:55:49.859Z,95355.75
2023-05-10T11:00:51.504Z,95351.66
2023-05-10T11:05:59.163Z,95353.50
2023-05-10T11:11:00.680Z,95351.84
2023-05-10T11:16:42.023Z,95351.84
2023-05-10T11:22:06.152Z,95354.47
2023-05-10T11:27:07.990Z,95355.31
2023-05-10T11:32:09.874Z,95347.09
2023-05-10T11:37:11.360Z,95341.34
2023-05-10T11:42:13.271Z,95340.44
2023-05-10T11:47:14.862Z,95344.84
2023-05-10T11:52:16.421Z,95345.38
2023-05-10T11:57:19.637Z,95342.94
2023-05-10T12:02:22.772Z,95353.22
2023-05-10T12:07:24.355Z,95351.72
2023-05-10T12:12:26.084Z,95359.53
2023-05-10T12:17:31.041Z,95363.00
2023-05-10T12:22:35.866Z,95371.09
2023-05-10T12:27:37.990Z,95359.53
2023-05-10T12:32:41.667Z,95365.50
2023-05-10T12:37:46.444Z,95373.81
2023-05-10T12:42:48.091Z,95377.22
2023-05-10T12:47:49.705Z,95366.66
2023-05-10T12:52:51.285Z,95373.75
2023-05-10T12:57:52.771Z,95365.31
2023-05-10T13:02:54.431Z,95368.25
2023-05-10T13:07:56.720Z,95369.66
2023-05-10T13:12:59.052Z,95374.25
2023-05-10T13:18:01.221Z,95372.28
2023-05-10T13:23:03.727Z,95378.59
2023-05-10T13:28:05.907Z,95377.81
2023-05-10T13:33:07.508Z,95380.41
2023-05-10T13:38:09.246Z,95374.84
2023-05-10T13:43:10.977Z,95362.81
2023-05-10T13:48:14.704Z,95363.72
2023-05-10T13:53:16.408Z,95367.91
2023-05-10T13:58:17.943Z,95366.38
2023-05-10T14:03:20.056Z,95363.03
2023-05-10T14:08:21.734Z,95369.97
2023-05-10T14:13:24.845Z,95358.88
2023-05-10T14:18:26.851Z,95362.25
2023-05-10T14:23:29.640Z,95354.22
2023-05-10T14:28:31.426Z,95353.03
2023-05-10T14:33:32.967Z,95366.25
2023-05-10T14:38:34.513Z,95359.81
2023-05-10T14:43:37.252Z,95360.28
2023-05-10T14:48:38.797Z,95364.91
2023-05-10T14:53:40.509Z,95365.84
2023-05-10T14:58:42.081Z,95367.97
2023-05-10T15:03:43.728Z,95367.78
2023-05-10T15:08:45.664Z,95377.59
2023-05-10T15:13:47.161Z,95394.16
2023-05-10T15:18:49.879Z,95404.75
2023-05-10T15:23:51.469Z,95413.88
2023-05-10T15:28:53.500Z,95408.91
2023-05-10T15:34:01.567Z,95411.25
2023-05-10T15:39:04.219Z,95415.63
2023-05-10T15:44:06.365Z,95420.94
2023-05-10T15:49:07.921Z,95424.88
2023-05-10T15:54:09.917Z,95442.25
2023-05-10T15:59:11.857Z,95431.00
2023-05-10T16:04:13.486Z,95429.28
2023-05-10T16:09:15.566Z,95426.28
2023-05-10T16:14:17.280Z,95430.84
2023-05-10T16:19:19.015Z,95431.41
2023-05-10T16:24:20.996Z,95422.94
2023-05-10T16:29:22.529Z,95425.34
2023-05-10T16:34:25.413Z,95432.53
2023-05-10T16:39:27.080Z,95432.97
2023-05-10T16:44:28.677Z,95433.44
2023-05-10T16:49:30.620Z,95434.78
2023-05-10T16:54:32.159Z,95436.88
2023-05-10T16:59:33.952Z,95450.44
2023-05-10T17:04:35.717Z,95450.22
2023-05-10T17:09:37.300Z,95454.75
2023-05-10T17:14:38.888Z,95477.03
2023-05-10T17:19:40.586Z,95479.69
2023-05-10T17:24:42.154Z,95478.69
2023-05-10T17:29:43.813Z,95479.25
2023-05-10T17:34:45.447Z,95476.72
2023-05-10T17:39:46.961Z,95481.56
2023-05-10T17:44:48.487Z,95488.38
2023-05-10T17:49:50.209Z,95493.00
2023-05-10T17:54:52.126Z,95502.25
2023-05-10T17:59:53.808Z,95506.88
2023-05-10T18:04:57.556Z,95504.13
2023-05-10T18:10:01.330Z,95505.63
2023-05-10T18:15:03.254Z,95512.53
2023-05-10T18:20:06.060Z,95518.13
2023-05-10T18:25:08.074Z,95528.56
2023-05-10T18:30:12.233Z,95524.88
2023-05-10T18:35:14.271Z,95526.16
2023-05-10T18:40:17.045Z,95529.03
2023-05-10T18:45:18.903Z,95530.66
2023-05-10T18:50:20.866Z,95535.47
2023-05-10T18:55:25.679Z,95533.94
2023-05-10T19:00:28.086Z,95537.09
2023-05-10T19:05:31.570Z,95544.25
2023-05-10T19:10:33.128Z,95545.53
2023-05-10T19:15:34.782Z,95551.16
2023-05-10T19:20:36.310Z,95558.28
2023-05-10T19:25:39.296Z,95558.81
2023-05-10T19:30:40.968Z,95566.34
2023-05-10T19:35:42.757Z,95570.31
2023-05-10T19:40:44.341Z,95567.56
2023-05-10T19:45:46.713Z,95565.59
2023-05-10T19:50:48.271Z,95562.84
2023-05-10T19:55:49.802Z,95558.97
2023-05-10T20:00:51.376Z,95563.34
2023-05-10T20:05:53.111Z,95563.78
2023-05-10T20:10:54.946Z,95559.91
2023-05-10T20:15:58.084Z,95569.44
2023-05-10T20:21:00.836Z,95579.72
2023-05-10T20:26:02.670Z,95574.31
2023-05-10T20:31:04.336Z,95567.25
2023-05-10T20:36:06.655Z,95565.28
2023-05-10T20:41:08.171Z,95562.53
2023-05-10T20:46:10.725Z,95572.69
2023-05-10T20:51:12.301Z,95566.81
2023-05-10T20:56:14.037Z,95567.25
2023-05-10T21:01:15.743Z,95561.38
2023-05-10T21:06:17.454Z,95558.72
2023-05-10T21:11:19.154Z,95559.13
2023-05-10T21:16:20.807Z,95549.69
2023-05-10T21:21:22.529Z,95556.81
2023-05-10T21:26:24.171Z,95548.22
2023-05-10T21:31:25.878Z,95546.38
2023-05-10T21:36:27.873Z,95548.47
2023-05-10T21:41:29.416Z,95546.72
2023-05-10T21:46:31.004Z,95549.53
2023-05-10T21:51:32.674Z,95549.97
2023-05-10T21:56:34.195Z,95547.63
2023-05-10T22:01:35.806Z,95541.34
2023-05-10T22:06:37.493Z,95546.84
2023-05-10T22:11:39.122Z,95539.03
2023-05-10T22:16:40.977Z,95528.81
2023-05-10T22:21:42.621Z,95544.09
2023-05-10T22:26:44.438Z,95540.59
2023-05-10T22:31:46.161Z,95545.22
2023-05-10T22:36:49.053Z,95532.25
2023-05-10T22:41:50.611Z,95535.84
2023-05-10T22:46:52.165Z,95535.50
2023-05-10T22:51:53.848Z,95535.13
2023-05-10T22:56:56.502Z,95540.31
2023-05-10T23:01:58.277Z,95531.84
2023-05-10T23:06:59.878Z,95540.25
2023-05-10T23:12:01.455Z,95534.81
2023-05-10T23:17:03.115Z,95538.75
2023-05-10T23:22:04.670Z,95549.41
2023-05-10T23:27:06.227Z,95543.50
2023-05-10T23:32:07.799Z,95545.53
2023-05-10T23:37:09.466Z,95537.72
2023-05-10T23:42:11.013Z,95540.88
2023-05-10T23:47:12.820Z,95538.63
2023-05-10T23:52:14.351Z,95537.06
2023-05-10T23:57:15.947Z,95531.63
